Terminal Aerodrome Forecast
Issued by NWS Shreveport, LA

Home | Current Version | Previous Version | Text Only | Print | Product List | Glossary On
Versions: 1 2 3 4 5 6 7 8 9 10 11 12
000
FTUS44 KSHV 242330
TAFLFK
TAF
KLFK 242330Z 2500/2524 17012G20KT P6SM SKC
     FM250300 17010KT P6SM OVC010
      TEMPO 2503/2506 SCT015
     FM250800 19008KT 5SM -SHRA BR OVC008
     FM251200 31008KT P6SM SKC
      TEMPO 2512/2515 25005KT BKN015=

USA.gov is the U.S. government's official web portal to all federal, state and local government web resources and services.